createdAt,value
2022-10-07T00:02:24.697Z,93.15
2022-10-07T00:04:51.391Z,93.36
2022-10-07T00:07:18.055Z,93.66
2022-10-07T00:09:44.962Z,93.72
2022-10-07T00:12:11.622Z,93.79
2022-10-07T00:14:39.544Z,93.86
2022-10-07T00:17:06.206Z,93.73
2022-10-07T00:19:33.570Z,93.99
2022-10-07T00:22:00.406Z,94.05
2022-10-07T00:24:27.050Z,94.03
2022-10-07T00:26:53.719Z,94.16
2022-10-07T00:29:23.182Z,94.18
2022-10-07T00:31:56.906Z,94.72
2022-10-07T00:34:24.773Z,94.36
2022-10-07T00:36:51.542Z,95.16
2022-10-07T00:39:18.466Z,95.13
2022-10-07T00:41:55.444Z,94.61
2022-10-07T00:44:29.728Z,94.68
2022-10-07T00:46:57.283Z,95.13
2022-10-07T00:49:23.862Z,95.07
2022-10-07T00:51:52.587Z,95.03
2022-10-07T00:54:20.840Z,95.07
2022-10-07T00:56:50.008Z,95.34
2022-10-07T00:59:18.310Z,95.39
2022-10-07T01:01:46.324Z,95.44
2022-10-07T01:04:14.928Z,96.04
2022-10-07T01:06:41.671Z,95.38
2022-10-07T01:09:10.688Z,95.97
2022-10-07T01:11:48.277Z,95.90
2022-10-07T01:14:34.461Z,95.71
2022-10-07T01:17:23.101Z,95.60
2022-10-07T01:20:16.587Z,96.23
2022-10-07T01:23:22.298Z,96.30
2022-10-07T01:26:14.725Z,96.83
2022-10-07T01:28:49.948Z,97.05
2022-10-07T01:31:21.755Z,97.29
2022-10-07T01:33:52.983Z,97.29
2022-10-07T01:36:24.892Z,97.18
2022-10-07T01:38:56.720Z,97.61
2022-10-07T01:41:24.314Z,97.71
2022-10-07T01:43:53.807Z,98.08
2022-10-07T01:46:25.778Z,98.28
2022-10-07T01:48:55.013Z,97.88
2022-10-07T01:51:25.538Z,98.18
2022-10-07T01:54:17.965Z,98.32
2022-10-07T01:57:06.815Z,98.47
2022-10-07T01:59:53.816Z,98.20
2022-10-07T02:02:26.434Z,98.30
2022-10-07T02:05:17.083Z,98.42
2022-10-07T02:07:47.851Z,98.34
2022-10-07T02:10:26.475Z,98.74
2022-10-07T02:13:12.344Z,98.67
2022-10-07T02:15:54.081Z,99.32
2022-10-07T02:18:20.982Z,99.37
2022-10-07T02:20:51.934Z,99.30
2022-10-07T02:23:23.648Z,99.49
2022-10-07T02:25:51.861Z,99.55
2022-10-07T02:28:22.731Z,99.50
2022-10-07T02:30:55.877Z,99.99
2022-10-07T02:33:28.008Z,99.66
2022-10-07T02:35:59.821Z,99.93
2022-10-07T02:38:26.820Z,99.87
2022-10-07T02:41:06.191Z,100.00
2022-10-07T02:43:41.984Z,100.00
2022-10-07T02:46:22.566Z,100.00
2022-10-07T02:48:58.808Z,100.00
2022-10-07T02:51:29.672Z,100.00
2022-10-07T02:53:57.735Z,100.00
2022-10-07T02:56:26.613Z,100.00
2022-10-07T02:58:54.042Z,100.00
2022-10-07T03:01:26.609Z,100.00
2022-10-07T03:03:53.303Z,100.00
2022-10-07T03:06:20.455Z,100.00
2022-10-07T03:08:48.137Z,100.00
2022-10-07T03:11:14.844Z,100.00
2022-10-07T03:13:41.663Z,100.00
2022-10-07T03:16:08.274Z,100.00
2022-10-07T03:18:34.880Z,100.00
2022-10-07T03:21:08.718Z,100.00
2022-10-07T03:23:35.602Z,100.00
2022-10-07T03:26:02.384Z,100.00
2022-10-07T03:28:31.528Z,100.00
2022-10-07T03:31:10.144Z,100.00
2022-10-07T03:33:40.292Z,100.00
2022-10-07T03:36:09.099Z,100.00
2022-10-07T03:38:37.436Z,100.00
2022-10-07T03:41:07.393Z,100.00
2022-10-07T03:43:34.433Z,100.00
2022-10-07T03:46:04.040Z,100.00
2022-10-07T03:48:33.002Z,100.00
2022-10-07T03:51:01.400Z,100.00
2022-10-07T03:53:30.233Z,100.00
2022-10-07T03:55:59.248Z,100.00
2022-10-07T03:58:26.007Z,100.00
2022-10-07T04:00:52.632Z,100.00
2022-10-07T04:03:19.447Z,100.00
2022-10-07T04:05:59.624Z,100.00
2022-10-07T04:08:29.204Z,100.00
2022-10-07T04:10:57.279Z,100.00
2022-10-07T04:13:24.184Z,100.00
2022-10-07T04:15:53.024Z,100.00
2022-10-07T04:18:21.111Z,100.00
2022-10-07T04:20:48.008Z,100.00
2022-10-07T04:23:15.539Z,100.00
2022-10-07T04:25:46.803Z,100.00
2022-10-07T04:28:24.165Z,100.00
2022-10-07T04:30:55.820Z,100.00
2022-10-07T04:33:29.975Z,100.00
2022-10-07T04:35:57.260Z,100.00
2022-10-07T04:38:28.147Z,100.00
2022-10-07T04:40:56.469Z,100.00
2022-10-07T04:43:23.600Z,100.00
2022-10-07T04:46:05.699Z,100.00
2022-10-07T04:48:34.793Z,100.00
2022-10-07T04:51:06.071Z,100.00
2022-10-07T04:53:33.578Z,100.00
2022-10-07T04:56:00.532Z,100.00
2022-10-07T04:58:29.259Z,100.00
2022-10-07T05:00:57.211Z,100.00
2022-10-07T05:03:27.005Z,100.00
2022-10-07T05:05:56.234Z,100.00
2022-10-07T05:08:24.974Z,100.00
2022-10-07T05:10:57.281Z,100.00
2022-10-07T05:13:26.458Z,100.00
2022-10-07T05:15:59.231Z,100.00
2022-10-07T05:18:27.491Z,100.00
2022-10-07T05:20:56.906Z,100.00
2022-10-07T05:23:28.535Z,100.00
2022-10-07T05:26:04.827Z,100.00
2022-10-07T05:28:33.655Z,100.00
2022-10-07T05:31:01.898Z,100.00
2022-10-07T05:33:31.689Z,100.00
2022-10-07T05:35:59.252Z,100.00
2022-10-07T05:38:26.862Z,100.00
2022-10-07T05:41:05.077Z,100.00
2022-10-07T05:43:38.489Z,100.00
2022-10-07T05:46:11.003Z,100.00
2022-10-07T05:48:41.327Z,100.00
2022-10-07T05:51:08.886Z,100.00
2022-10-07T05:53:35.500Z,100.00
2022-10-07T05:56:12.623Z,100.00
2022-10-07T05:58:39.413Z,100.00
2022-10-07T06:01:14.497Z,100.00
2022-10-07T06:03:43.960Z,100.00
2022-10-07T06:06:11.315Z,100.00
2022-10-07T06:08:37.997Z,100.00
2022-10-07T06:11:24.561Z,100.00
2022-10-07T06:13:53.705Z,100.00
2022-10-07T06:16:21.363Z,100.00
2022-10-07T06:18:50.555Z,100.00
2022-10-07T06:21:19.509Z,100.00
2022-10-07T06:23:53.162Z,100.00
2022-10-07T06:26:23.863Z,100.00
2022-10-07T06:28:51.319Z,100.00
2022-10-07T06:31:25.206Z,100.00
2022-10-07T06:33:57.030Z,100.00
2022-10-07T06:36:23.685Z,100.00
2022-10-07T06:38:55.153Z,100.00
2022-10-07T06:41:26.602Z,100.00
2022-10-07T06:44:05.436Z,100.00
2022-10-07T06:46:32.018Z,100.00
2022-10-07T06:48:59.047Z,100.00
2022-10-07T06:51:25.890Z,100.00
2022-10-07T06:53:57.856Z,100.00
2022-10-07T06:56:25.827Z,100.00
2022-10-07T06:58:52.606Z,100.00
2022-10-07T07:01:28.035Z,100.00
2022-10-07T07:03:56.036Z,100.00
2022-10-07T07:06:23.646Z,99.46
2022-10-07T07:08:50.459Z,99.54
2022-10-07T07:11:37.154Z,99.57
2022-10-07T07:14:12.274Z,99.02
2022-10-07T07:16:42.220Z,98.74
2022-10-07T07:19:12.121Z,98.46
2022-10-07T07:21:40.944Z,98.10
2022-10-07T07:24:10.325Z,98.36
2022-10-07T07:26:39.416Z,97.57
2022-10-07T07:29:07.999Z,97.40
2022-10-07T07:31:42.607Z,97.39
2022-10-07T07:34:12.011Z,97.01
2022-10-07T07:36:44.759Z,96.86
2022-10-07T07:39:15.040Z,96.76
2022-10-07T07:41:46.782Z,96.81
2022-10-07T07:44:17.996Z,96.65
2022-10-07T07:46:52.152Z,96.22
2022-10-07T07:49:21.503Z,96.22
2022-10-07T07:51:49.271Z,95.85
2022-10-07T07:54:22.836Z,95.51
2022-10-07T07:56:51.732Z,96.20
2022-10-07T07:59:20.946Z,95.79
2022-10-07T08:01:49.541Z,95.24
2022-10-07T08:04:17.109Z,95.45
2022-10-07T08:06:44.658Z,95.37
2022-10-07T08:09:12.856Z,94.92
2022-10-07T08:11:45.703Z,94.08
2022-10-07T08:14:17.352Z,93.50
2022-10-07T08:16:46.051Z,92.60
2022-10-07T08:19:13.146Z,91.09
2022-10-07T08:21:39.719Z,90.92
2022-10-07T08:24:12.335Z,90.64
2022-10-07T08:26:39.725Z,90.30
2022-10-07T08:29:09.081Z,89.84
2022-10-07T08:31:35.932Z,89.42
2022-10-07T08:34:04.261Z,88.53
2022-10-07T08:36:33.140Z,88.44
2022-10-07T08:39:01.568Z,88.50
2022-10-07T08:41:36.231Z,88.58
2022-10-07T08:44:18.112Z,87.71
2022-10-07T08:47:09.674Z,88.50
2022-10-07T08:50:02.774Z,86.61
2022-10-07T08:52:29.257Z,86.31
2022-10-07T08:54:55.786Z,84.57
2022-10-07T08:57:31.192Z,84.58
2022-10-07T09:00:03.739Z,84.98
2022-10-07T09:02:56.417Z,85.08
2022-10-07T09:05:28.153Z,84.50
2022-10-07T09:07:59.268Z,84.11
2022-10-07T09:10:28.495Z,83.84
2022-10-07T09:13:00.411Z,83.84
2022-10-07T09:15:34.226Z,84.04
2022-10-07T09:18:41.005Z,82.77
2022-10-07T09:21:32.924Z,82.87
2022-10-07T09:24:24.475Z,82.49
2022-10-07T09:26:57.198Z,82.33
2022-10-07T09:29:26.601Z,82.12
2022-10-07T09:31:54.121Z,81.94
2022-10-07T09:34:24.152Z,81.31
2022-10-07T09:37:13.873Z,80.36
2022-10-07T09:39:42.272Z,79.27
2022-10-07T09:42:23.450Z,79.01
2022-10-07T09:44:55.344Z,77.12
2022-10-07T09:47:25.061Z,76.25
2022-10-07T09:49:56.738Z,77.09
2022-10-07T09:52:25.382Z,75.54
2022-10-07T09:54:54.137Z,75.95
2022-10-07T09:57:32.971Z,75.70
2022-10-07T10:00:24.443Z,76.17
2022-10-07T10:03:07.688Z,75.53
2022-10-07T10:06:05.195Z,74.11
2022-10-07T10:08:35.722Z,74.18
2022-10-07T10:11:29.507Z,73.41
2022-10-07T10:13:56.724Z,72.87
2022-10-07T10:16:26.127Z,70.42
2022-10-07T10:19:21.658Z,71.70
2022-10-07T10:21:59.101Z,71.30
2022-10-07T10:24:48.757Z,72.51
2022-10-07T10:27:26.163Z,70.49
2022-10-07T10:30:05.763Z,71.03
2022-10-07T10:32:51.174Z,68.99
2022-10-07T10:35:34.545Z,68.73
2022-10-07T10:38:23.371Z,68.08
2022-10-07T10:41:03.671Z,66.03
2022-10-07T10:43:30.133Z,66.29
2022-10-07T10:46:25.651Z,67.10
2022-10-07T10:49:19.717Z,67.91
2022-10-07T10:52:18.759Z,67.88
2022-10-07T10:55:04.235Z,69.09
2022-10-07T10:58:07.723Z,67.02
2022-10-07T11:00:48.642Z,64.32
2022-10-07T11:03:49.352Z,63.62
2022-10-07T11:06:18.167Z,64.30
2022-10-07T11:08:47.399Z,63.55
2022-10-07T11:11:19.077Z,62.28
2022-10-07T11:13:57.728Z,61.61
2022-10-07T11:16:45.003Z,61.64
2022-10-07T11:19:30.912Z,61.32
2022-10-07T11:21:59.981Z,61.20
2022-10-07T11:24:33.530Z,61.53
2022-10-07T11:27:20.331Z,63.60
2022-10-07T11:30:16.642Z,63.28
2022-10-07T11:32:49.350Z,62.73
2022-10-07T11:35:34.773Z,61.03
2022-10-07T11:38:10.563Z,61.44
2022-10-07T11:41:03.280Z,63.25
2022-10-07T11:43:35.170Z,61.22
2022-10-07T11:46:14.556Z,61.02
2022-10-07T11:49:06.276Z,61.80
2022-10-07T11:51:38.420Z,61.00
2022-10-07T11:54:08.056Z,61.18
2022-10-07T11:56:44.377Z,61.40
2022-10-07T11:59:29.925Z,61.96
2022-10-07T12:01:56.602Z,62.58
2022-10-07T12:04:29.192Z,62.64
2022-10-07T12:07:33.461Z,61.06
2022-10-07T12:10:06.810Z,61.53
2022-10-07T12:12:47.648Z,61.14
2022-10-07T12:15:31.699Z,61.44
2022-10-07T12:18:07.052Z,60.07
2022-10-07T12:20:46.307Z,60.09
2022-10-07T12:23:18.949Z,60.67
2022-10-07T12:25:51.511Z,59.48
2022-10-07T12:28:45.919Z,58.12
2022-10-07T12:31:12.534Z,57.77
2022-10-07T12:34:06.218Z,58.72
2022-10-07T12:36:33.058Z,58.74
2022-10-07T12:39:02.603Z,59.06
2022-10-07T12:41:30.347Z,59.37
2022-10-07T12:44:38.542Z,60.79
2022-10-07T12:47:18.531Z,59.47
2022-10-07T12:49:51.379Z,60.16
2022-10-07T12:52:40.430Z,61.02
2022-10-07T12:55:10.929Z,61.42
2022-10-07T12:57:40.971Z,61.57
2022-10-07T13:00:13.485Z,60.95
2022-10-07T13:03:30.420Z,60.05
2022-10-07T13:06:29.562Z,60.86
2022-10-07T13:09:30.262Z,59.18
2022-10-07T13:12:15.726Z,59.36
2022-10-07T13:14:55.490Z,59.52
2022-10-07T13:17:46.286Z,60.01
2022-10-07T13:20:27.128Z,60.12
2022-10-07T13:22:54.315Z,60.94
2022-10-07T13:25:21.675Z,58.76
2022-10-07T13:28:00.198Z,56.96
2022-10-07T13:30:40.928Z,56.94
2022-10-07T13:33:17.059Z,57.33
2022-10-07T13:35:43.614Z,57.68
2022-10-07T13:38:28.375Z,57.48
2022-10-07T13:41:04.800Z,56.78
2022-10-07T13:43:33.286Z,56.99
2022-10-07T13:46:02.001Z,56.46
2022-10-07T13:48:35.442Z,56.96
2022-10-07T13:51:02.904Z,58.00
2022-10-07T13:53:32.168Z,58.23
2022-10-07T13:56:17.188Z,58.80
2022-10-07T13:58:44.332Z,58.20
2022-10-07T14:01:12.603Z,58.41
2022-10-07T14:04:09.704Z,58.48
2022-10-07T14:06:57.522Z,58.65
2022-10-07T14:09:33.012Z,58.26
2022-10-07T14:12:13.109Z,58.28
2022-10-07T14:14:42.598Z,57.38
2022-10-07T14:17:19.336Z,57.54
2022-10-07T14:19:52.942Z,56.23
2022-10-07T14:22:28.298Z,57.16
2022-10-07T14:24:58.358Z,56.69
2022-10-07T14:27:47.062Z,56.57
2022-10-07T14:30:56.437Z,56.99
2022-10-07T14:34:03.289Z,57.10
2022-10-07T14:36:29.947Z,57.22
2022-10-07T14:38:59.755Z,57.75
2022-10-07T14:41:29.098Z,57.71
2022-10-07T14:43:59.925Z,57.32
2022-10-07T14:46:28.353Z,57.27
2022-10-07T14:48:55.131Z,57.43
2022-10-07T14:51:26.867Z,57.28
2022-10-07T14:53:56.380Z,56.93
2022-10-07T14:56:27.133Z,57.23
2022-10-07T14:58:54.900Z,58.00
2022-10-07T15:01:21.400Z,57.50
2022-10-07T15:03:51.318Z,56.50
2022-10-07T15:06:18.894Z,57.11
2022-10-07T15:08:46.749Z,57.46
2022-10-07T15:11:18.723Z,57.57
2022-10-07T15:13:49.823Z,57.94
2022-10-07T15:16:19.545Z,58.09
2022-10-07T15:18:51.837Z,58.30
2022-10-07T15:21:19.920Z,58.37
2022-10-07T15:23:53.960Z,58.77
2022-10-07T15:26:23.985Z,58.67
2022-10-07T15:28:56.503Z,58.14
2022-10-07T15:31:26.556Z,57.64
2022-10-07T15:33:57.093Z,57.90
2022-10-07T15:36:25.875Z,57.74
2022-10-07T15:38:52.651Z,57.96
2022-10-07T15:41:42.921Z,58.09
2022-10-07T15:44:19.053Z,58.13
2022-10-07T15:46:48.336Z,58.37
2022-10-07T15:49:19.425Z,59.00
2022-10-07T15:51:46.760Z,59.15
2022-10-07T15:54:13.597Z,59.68
2022-10-07T15:56:40.512Z,60.14
2022-10-07T15:59:07.034Z,60.77
2022-10-07T16:01:33.690Z,61.46
2022-10-07T16:04:02.452Z,61.54
2022-10-07T16:06:34.840Z,62.24
2022-10-07T16:09:02.120Z,62.25
2022-10-07T16:11:30.142Z,62.53
2022-10-07T16:13:59.272Z,62.94
2022-10-07T16:16:27.338Z,63.05
2022-10-07T16:18:56.954Z,63.26
2022-10-07T16:21:27.959Z,63.45
2022-10-07T16:24:03.674Z,63.70
2022-10-07T16:26:31.308Z,64.10
2022-10-07T16:29:18.620Z,64.35
2022-10-07T16:31:46.482Z,64.41
2022-10-07T16:34:15.655Z,64.04
2022-10-07T16:36:45.672Z,64.56
2022-10-07T16:39:13.444Z,64.47
2022-10-07T16:41:42.962Z,64.72
2022-10-07T16:44:09.875Z,64.89
2022-10-07T16:46:36.791Z,65.50
2022-10-07T16:49:08.475Z,65.91
2022-10-07T16:51:37.367Z,66.08
2022-10-07T16:54:13.072Z,66.85
2022-10-07T16:56:47.091Z,67.00
2022-10-07T16:59:22.069Z,67.39
2022-10-07T17:01:51.491Z,68.04
2022-10-07T17:04:18.389Z,68.56
2022-10-07T17:06:46.317Z,69.13
2022-10-07T17:09:14.069Z,69.58
2022-10-07T17:11:41.218Z,70.17
2022-10-07T17:14:16.702Z,70.83
2022-10-07T17:16:52.727Z,71.90
2022-10-07T17:19:22.001Z,72.03
2022-10-07T17:21:49.909Z,72.39
2022-10-07T17:24:18.121Z,73.35
2022-10-07T17:26:45.937Z,73.59
2022-10-07T17:29:16.436Z,73.77
2022-10-07T17:31:44.356Z,73.96
2022-10-07T17:34:11.920Z,73.97
2022-10-07T17:36:39.435Z,74.50
2022-10-07T17:39:06.746Z,74.65
2022-10-07T17:41:35.448Z,75.27
2022-10-07T17:44:05.952Z,75.95
2022-10-07T17:46:33.282Z,76.09
2022-10-07T17:49:02.153Z,76.54
2022-10-07T17:51:31.818Z,77.17
2022-10-07T17:54:02.812Z,77.40
2022-10-07T17:56:31.842Z,77.84
2022-10-07T17:58:58.870Z,78.44
2022-10-07T18:01:28.243Z,78.82
2022-10-07T18:03:57.527Z,79.12
2022-10-07T18:06:29.010Z,79.50
2022-10-07T18:08:56.261Z,79.65
2022-10-07T18:11:22.910Z,79.92
2022-10-07T18:14:07.869Z,80.60
2022-10-07T18:16:35.533Z,80.87
2022-10-07T18:19:02.814Z,80.93
2022-10-07T18:21:31.689Z,81.17
2022-10-07T18:23:58.947Z,81.67
2022-10-07T18:26:25.667Z,81.42
2022-10-07T18:28:52.617Z,81.75
2022-10-07T18:31:19.289Z,82.13
2022-10-07T18:33:46.369Z,81.92
2022-10-07T18:36:19.206Z,82.69
2022-10-07T18:38:46.327Z,82.45
2022-10-07T18:41:15.981Z,83.15
2022-10-07T18:43:45.476Z,82.97
2022-10-07T18:46:18.356Z,83.48
2022-10-07T18:48:48.008Z,83.29
2022-10-07T18:51:15.264Z,83.61
2022-10-07T18:53:43.974Z,83.81
2022-10-07T18:56:13.411Z,83.83
2022-10-07T18:58:43.301Z,83.76
2022-10-07T19:01:12.766Z,84.17
2022-10-07T19:03:39.912Z,84.32
2022-10-07T19:06:12.475Z,84.57
2022-10-07T19:08:39.569Z,84.76
2022-10-07T19:11:08.700Z,84.52
2022-10-07T19:13:47.910Z,84.65
2022-10-07T19:16:16.922Z,84.84
2022-10-07T19:18:44.289Z,85.23
2022-10-07T19:21:13.768Z,85.74
2022-10-07T19:23:41.540Z,85.61
2022-10-07T19:26:08.679Z,85.59
2022-10-07T19:28:37.606Z,85.99
2022-10-07T19:31:19.073Z,86.52
2022-10-07T19:33:47.156Z,86.14
2022-10-07T19:36:14.925Z,86.38
2022-10-07T19:38:44.415Z,87.01
2022-10-07T19:41:16.007Z,86.49
2022-10-07T19:43:45.366Z,87.12
2022-10-07T19:46:13.407Z,87.18
2022-10-07T19:48:40.052Z,87.08
2022-10-07T19:51:09.934Z,87.67
2022-10-07T19:53:36.549Z,87.47
2022-10-07T19:56:06.418Z,87.76
2022-10-07T19:58:32.931Z,87.36
2022-10-07T20:01:10.354Z,87.45
2022-10-07T20:03:37.383Z,87.77
2022-10-07T20:06:07.629Z,87.78
2022-10-07T20:08:36.692Z,87.59
2022-10-07T20:11:04.492Z,87.96
2022-10-07T20:13:34.897Z,88.26
2022-10-07T20:16:06.716Z,88.31
2022-10-07T20:18:34.661Z,88.92
2022-10-07T20:21:03.717Z,88.70
2022-10-07T20:23:38.536Z,89.33
2022-10-07T20:26:10.567Z,89.14
2022-10-07T20:28:40.420Z,88.97
2022-10-07T20:31:12.103Z,89.60
2022-10-07T20:33:40.341Z,89.38
2022-10-07T20:36:08.424Z,89.99
2022-10-07T20:38:54.933Z,89.10
2022-10-07T20:41:41.375Z,90.43
2022-10-07T20:44:09.170Z,90.05
2022-10-07T20:46:37.990Z,90.75
2022-10-07T20:49:21.784Z,90.86
2022-10-07T20:51:59.604Z,91.02
2022-10-07T20:54:26.893Z,90.65
2022-10-07T20:56:57.947Z,90.88
2022-10-07T20:59:28.612Z,90.45
2022-10-07T21:01:55.706Z,91.14
2022-10-07T21:04:25.381Z,91.60
2022-10-07T21:06:52.278Z,91.46
2022-10-07T21:09:19.536Z,90.74
2022-10-07T21:11:48.289Z,91.32
2022-10-07T21:14:15.578Z,91.24
2022-10-07T21:16:42.359Z,91.75
2022-10-07T21:19:09.061Z,91.75
2022-10-07T21:21:35.819Z,91.37
2022-10-07T21:24:02.399Z,91.94
2022-10-07T21:26:28.953Z,91.66
2022-10-07T21:28:55.514Z,92.11
2022-10-07T21:31:23.098Z,92.04
2022-10-07T21:33:51.205Z,92.29
2022-10-07T21:36:21.220Z,92.56
2022-10-07T21:38:53.839Z,92.31
2022-10-07T21:41:22.733Z,92.72
2022-10-07T21:43:55.848Z,92.36
2022-10-07T21:46:24.567Z,92.82
2022-10-07T21:48:52.137Z,92.66
2022-10-07T21:51:18.769Z,92.99
2022-10-07T21:53:52.290Z,92.85
2022-10-07T21:56:19.615Z,92.85
2022-10-07T21:58:49.240Z,92.80
2022-10-07T22:01:17.826Z,93.45
2022-10-07T22:03:45.174Z,93.20
2022-10-07T22:06:14.703Z,93.50
2022-10-07T22:08:43.905Z,93.44
2022-10-07T22:11:15.851Z,93.67
2022-10-07T22:13:51.821Z,94.18
2022-10-07T22:16:19.453Z,93.90
2022-10-07T22:18:49.431Z,93.35
2022-10-07T22:21:21.443Z,93.69
2022-10-07T22:23:50.557Z,93.84
2022-10-07T22:26:18.799Z,93.91
2022-10-07T22:28:49.595Z,94.68
2022-10-07T22:31:16.946Z,94.37
2022-10-07T22:33:45.066Z,94.35
2022-10-07T22:36:13.427Z,94.56
2022-10-07T22:38:41.006Z,94.82
2022-10-07T22:41:10.524Z,94.38
2022-10-07T22:43:38.290Z,94.51
2022-10-07T22:46:06.499Z,95.04
2022-10-07T22:48:34.136Z,95.06
2022-10-07T22:51:06.911Z,94.66
2022-10-07T22:53:41.522Z,95.06
2022-10-07T22:56:13.856Z,95.09
2022-10-07T22:58:42.221Z,95.13
2022-10-07T23:01:14.091Z,95.53
2022-10-07T23:03:43.909Z,95.50
2022-10-07T23:06:12.386Z,95.68
2022-10-07T23:08:39.434Z,95.72
2022-10-07T23:11:07.804Z,96.00
2022-10-07T23:13:36.451Z,95.52
2022-10-07T23:16:11.370Z,95.69
2022-10-07T23:18:39.743Z,95.79
2022-10-07T23:21:13.087Z,96.20
2022-10-07T23:23:41.800Z,95.56
2022-10-07T23:26:23.252Z,96.27
2022-10-07T23:28:51.840Z,96.15
2022-10-07T23:31:20.568Z,95.98
2022-10-07T23:33:50.417Z,96.29
2022-10-07T23:36:20.031Z,96.40
2022-10-07T23:38:47.666Z,96.56
2022-10-07T23:41:17.332Z,96.63
2022-10-07T23:43:43.914Z,96.87
2022-10-07T23:46:14.296Z,97.12
2022-10-07T23:48:41.723Z,97.26
2022-10-07T23:51:11.374Z,97.21
2022-10-07T23:53:38.044Z,97.36
2022-10-07T23:56:04.875Z,97.62
2022-10-07T23:58:32.774Z,97.29
